createdAt,value
2022-09-26T00:00:42.177Z,4.20
2022-09-26T00:03:10.242Z,4.32
2022-09-26T00:05:37.974Z,4.22
2022-09-26T00:08:06.701Z,6.90
2022-09-26T00:10:34.290Z,5.90
2022-09-26T00:13:01.356Z,3.35
2022-09-26T00:15:27.731Z,5.60
2022-09-26T00:17:54.928Z,4.18
2022-09-26T00:20:21.547Z,4.20
2022-09-26T00:22:47.886Z,5.38
2022-09-26T00:25:14.267Z,3.30
2022-09-26T00:27:40.737Z,3.35
2022-09-26T00:30:11.511Z,2.05
2022-09-26T00:32:37.995Z,4.07
2022-09-26T00:35:04.702Z,5.22
2022-09-26T00:37:31.057Z,3.78
2022-09-26T00:39:57.390Z,3.20
2022-09-26T00:42:24.534Z,4.05
2022-09-26T00:44:58.348Z,4.53
2022-09-26T00:47:36.653Z,3.08
2022-09-26T00:50:28.390Z,7.30
2022-09-26T00:53:12.545Z,3.33
2022-09-26T00:55:50.181Z,3.70
2022-09-26T00:58:28.081Z,8.30
2022-09-26T01:00:55.971Z,5.70
2022-09-26T01:03:44.410Z,4.80
2022-09-26T01:06:11.767Z,5.60
2022-09-26T01:08:57.212Z,3.78
2022-09-26T01:11:23.733Z,4.22
2022-09-26T01:13:54.338Z,4.25
2022-09-26T01:16:20.971Z,4.10
2022-09-26T01:18:48.276Z,5.68
2022-09-26T01:21:37.752Z,4.65
2022-09-26T01:24:38.605Z,8.35
2022-09-26T01:27:15.390Z,3.63
2022-09-26T01:30:08.137Z,4.97
2022-09-26T01:33:03.566Z,3.55
2022-09-26T01:35:43.431Z,2.92
2022-09-26T01:38:48.031Z,3.97
2022-09-26T01:41:42.247Z,6.07
2022-09-26T01:44:34.809Z,4.43
2022-09-26T01:47:19.912Z,4.75
2022-09-26T01:50:18.952Z,5.85
2022-09-26T01:52:55.249Z,6.47
2022-09-26T01:55:28.284Z,4.57
2022-09-26T01:58:10.036Z,4.72
2022-09-26T02:00:40.131Z,2.50
2022-09-26T02:03:14.127Z,3.78
2022-09-26T02:05:48.587Z,4.72
2022-09-26T02:08:24.907Z,4.35
2022-09-26T02:10:59.772Z,3.97
2022-09-26T02:13:37.709Z,7.28
2022-09-26T02:16:10.784Z,4.82
2022-09-26T02:19:04.285Z,6.28
2022-09-26T02:21:30.645Z,3.67
2022-09-26T02:23:57.021Z,5.20
2022-09-26T02:26:23.786Z,7.80
2022-09-26T02:28:50.210Z,4.03
2022-09-26T02:31:22.659Z,6.28
2022-09-26T02:33:50.877Z,4.55
2022-09-26T02:36:19.197Z,4.88
2022-09-26T02:38:45.700Z,4.60
2022-09-26T02:41:24.150Z,6.43
2022-09-26T02:44:10.244Z,3.70
2022-09-26T02:46:53.263Z,14.85
2022-09-26T02:49:34.339Z,6.57
2022-09-26T02:52:12.687Z,4.63
2022-09-26T02:55:05.383Z,3.85
2022-09-26T02:57:48.869Z,5.68
2022-09-26T03:00:23.861Z,4.90
2022-09-26T03:03:07.867Z,6.10
2022-09-26T03:05:37.942Z,4.80
2022-09-26T03:08:15.705Z,4.20
2022-09-26T03:10:42.420Z,5.70
2022-09-26T03:13:13.415Z,6.95
2022-09-26T03:15:45.157Z,4.80
2022-09-26T03:18:19.815Z,8.18
2022-09-26T03:20:46.812Z,4.10
2022-09-26T03:23:13.164Z,4.72
2022-09-26T03:25:40.709Z,4.97
2022-09-26T03:28:09.421Z,6.88
2022-09-26T03:30:35.855Z,4.25
2022-09-26T03:33:03.372Z,5.90
2022-09-26T03:35:30.228Z,6.55
2022-09-26T03:37:56.592Z,5.78
2022-09-26T03:40:23.000Z,3.88
2022-09-26T03:42:50.125Z,5.05
2022-09-26T03:45:16.508Z,6.38
2022-09-26T03:47:42.969Z,7.70
2022-09-26T03:50:09.554Z,7.72
2022-09-26T03:52:36.458Z,6.97
2022-09-26T03:55:03.083Z,6.28
2022-09-26T03:57:29.442Z,6.10
2022-09-26T03:59:58.403Z,6.07
2022-09-26T04:02:25.144Z,5.45
2022-09-26T04:04:51.524Z,7.97
2022-09-26T04:07:18.258Z,9.32
2022-09-26T04:09:44.581Z,6.03
2022-09-26T04:12:11.092Z,7.05
2022-09-26T04:14:37.462Z,7.18
2022-09-26T04:17:04.030Z,5.93
2022-09-26T04:19:30.369Z,6.13
2022-09-26T04:21:56.888Z,4.82
2022-09-26T04:24:23.214Z,4.30
2022-09-26T04:26:49.843Z,6.18
2022-09-26T04:29:16.884Z,6.40
2022-09-26T04:31:43.603Z,6.68
2022-09-26T04:34:11.466Z,4.32
2022-09-26T04:36:52.495Z,5.80
2022-09-26T04:39:19.119Z,4.32
2022-09-26T04:41:45.609Z,6.60
2022-09-26T04:44:12.714Z,5.18
2022-09-26T04:46:39.035Z,5.93
2022-09-26T04:49:05.934Z,6.05
2022-09-26T04:51:33.826Z,4.22
2022-09-26T04:54:00.289Z,6.05
2022-09-26T04:56:31.093Z,5.72
2022-09-26T04:58:59.092Z,4.35
2022-09-26T05:01:26.540Z,8.57
2022-09-26T05:03:55.079Z,4.15
2022-09-26T05:06:21.741Z,6.20
2022-09-26T05:08:48.510Z,3.65
2022-09-26T05:11:16.789Z,6.80
2022-09-26T05:13:43.687Z,6.15
2022-09-26T05:16:11.496Z,4.38
2022-09-26T05:18:39.130Z,5.10
2022-09-26T05:21:07.406Z,4.40
2022-09-26T05:23:53.603Z,5.72
2022-09-26T05:26:24.253Z,6.72
2022-09-26T05:28:55.811Z,4.55
2022-09-26T05:31:25.280Z,7.90
2022-09-26T05:33:51.926Z,4.65
2022-09-26T05:36:19.397Z,2.95
2022-09-26T05:38:45.887Z,4.93
2022-09-26T05:41:15.126Z,5.75
2022-09-26T05:43:41.679Z,3.53
2022-09-26T05:46:12.756Z,3.85
2022-09-26T05:48:39.947Z,5.75
2022-09-26T05:51:18.566Z,4.05
2022-09-26T05:53:46.122Z,3.10
2022-09-26T05:56:18.494Z,5.10
2022-09-26T05:58:45.590Z,5.60
2022-09-26T06:01:14.906Z,5.90
2022-09-26T06:03:45.757Z,4.57
2022-09-26T06:06:15.128Z,4.93
2022-09-26T06:08:42.416Z,3.97
2022-09-26T06:11:14.712Z,9.63
2022-09-26T06:13:48.549Z,5.65
2022-09-26T06:16:21.024Z,5.32
2022-09-26T06:18:50.421Z,7.15
2022-09-26T06:21:18.671Z,4.43
2022-09-26T06:23:45.376Z,7.15
2022-09-26T06:26:15.909Z,4.68
2022-09-26T06:28:42.237Z,4.30
2022-09-26T06:31:14.755Z,3.92
2022-09-26T06:33:41.414Z,4.72
2022-09-26T06:36:10.234Z,6.57
2022-09-26T06:38:37.801Z,5.15
2022-09-26T06:41:04.931Z,3.90
2022-09-26T06:43:31.366Z,6.82
2022-09-26T06:46:01.821Z,8.02
2022-09-26T06:48:28.303Z,6.28
2022-09-26T06:51:00.399Z,4.25
2022-09-26T06:53:31.304Z,7.53
2022-09-26T06:56:06.613Z,5.22
2022-09-26T06:58:34.155Z,7.97
2022-09-26T07:01:02.790Z,3.83
2022-09-26T07:03:29.630Z,5.30
2022-09-26T07:05:56.636Z,6.78
2022-09-26T07:08:43.359Z,8.00
2022-09-26T07:11:32.791Z,9.93
2022-09-26T07:14:01.878Z,3.60
2022-09-26T07:16:28.866Z,6.75
2022-09-26T07:18:55.962Z,4.18
2022-09-26T07:21:22.582Z,7.60
2022-09-26T07:23:49.011Z,6.40
2022-09-26T07:26:15.363Z,4.03
2022-09-26T07:28:41.726Z,5.53
2022-09-26T07:31:09.040Z,5.22
2022-09-26T07:33:38.384Z,4.15
2022-09-26T07:36:05.818Z,4.10
2022-09-26T07:38:32.366Z,4.00
2022-09-26T07:41:00.969Z,3.55
2022-09-26T07:44:19.230Z,6.28
2022-09-26T07:46:36.667Z,6.57
2022-09-26T07:49:21.669Z,5.68
2022-09-26T07:51:48.188Z,8.15
2022-09-26T07:54:14.724Z,4.82
2022-09-26T07:56:42.026Z,5.82
2022-09-26T07:59:08.519Z,4.65
2022-09-26T08:01:38.244Z,6.03
2022-09-26T08:04:06.325Z,5.78
2022-09-26T08:06:34.978Z,6.03
2022-09-26T08:09:01.533Z,5.53
2022-09-26T08:11:27.985Z,6.25
2022-09-26T08:13:54.850Z,3.92
2022-09-26T08:16:23.569Z,4.13
2022-09-26T08:18:51.385Z,4.05
2022-09-26T08:21:18.227Z,8.90
2022-09-26T08:23:44.927Z,3.45
2022-09-26T08:26:11.288Z,5.90
2022-09-26T08:28:38.047Z,4.45
2022-09-26T08:31:05.552Z,4.63
2022-09-26T08:33:37.415Z,6.53
2022-09-26T08:36:10.065Z,6.25
2022-09-26T08:38:37.698Z,6.90
2022-09-26T08:41:35.189Z,5.43
2022-09-26T08:44:29.988Z,5.68
2022-09-26T08:47:17.588Z,4.93
2022-09-26T08:50:12.615Z,6.78
2022-09-26T08:52:51.941Z,3.83
2022-09-26T08:55:27.010Z,4.15
2022-09-26T08:58:10.149Z,7.28
2022-09-26T09:00:40.184Z,5.90
2022-09-26T09:03:31.619Z,5.57
2022-09-26T09:06:15.201Z,14.13
2022-09-26T09:08:49.346Z,5.88
2022-09-26T09:11:15.710Z,7.78
2022-09-26T09:13:57.650Z,5.93
2022-09-26T09:16:53.261Z,9.00
2022-09-26T09:19:37.601Z,5.03
2022-09-26T09:22:31.453Z,13.50
2022-09-26T09:25:20.448Z,6.50
2022-09-26T09:28:09.554Z,4.60
2022-09-26T09:31:00.032Z,5.53
2022-09-26T09:33:42.424Z,5.03
2022-09-26T09:39:07.372Z,5.82
2022-09-26T09:41:48.273Z,4.45
2022-09-26T09:44:47.155Z,6.90
2022-09-26T09:47:18.190Z,5.07
2022-09-26T09:49:48.152Z,5.93
2022-09-26T09:52:30.838Z,5.30
2022-09-26T09:55:13.585Z,12.27
2022-09-26T09:57:46.198Z,4.90
2022-09-26T10:00:16.573Z,4.43
2022-09-26T10:02:54.145Z,8.25
2022-09-26T10:05:35.278Z,5.88
2022-09-26T10:08:03.289Z,4.40
2022-09-26T10:10:58.425Z,7.28
2022-09-26T10:13:29.055Z,5.75
2022-09-26T10:16:00.925Z,8.23
2022-09-26T10:18:27.989Z,6.65
2022-09-26T10:21:00.168Z,5.88
2022-09-26T10:23:33.889Z,6.75
2022-09-26T10:26:07.114Z,4.35
2022-09-26T10:28:45.201Z,6.00
2022-09-26T10:31:12.763Z,7.25
2022-09-26T10:33:44.633Z,5.68
2022-09-26T10:36:20.455Z,5.97
2022-09-26T10:39:16.688Z,5.55
2022-09-26T10:41:45.123Z,7.78
2022-09-26T10:44:45.910Z,7.63
2022-09-26T10:47:19.026Z,5.47
2022-09-26T10:49:46.433Z,5.10
2022-09-26T10:52:30.541Z,4.88
2022-09-26T10:55:04.118Z,5.85
2022-09-26T10:57:40.691Z,3.72
2022-09-26T11:00:08.446Z,4.13
2022-09-26T11:02:35.431Z,5.18
2022-09-26T11:05:24.046Z,4.45
2022-09-26T11:07:52.267Z,4.65
2022-09-26T11:10:32.282Z,8.45
2022-09-26T11:13:02.506Z,3.65
2022-09-26T11:15:29.731Z,4.32
2022-09-26T11:17:56.530Z,4.82
2022-09-26T11:20:36.013Z,4.72
2022-09-26T11:23:12.220Z,3.55
2022-09-26T11:25:58.139Z,9.07
2022-09-26T11:28:48.902Z,5.25
2022-09-26T11:31:27.128Z,4.40
2022-09-26T11:33:54.135Z,5.35
2022-09-26T11:36:51.089Z,5.00
2022-09-26T11:39:34.558Z,5.00
2022-09-26T11:42:14.978Z,4.18
2022-09-26T11:44:56.806Z,4.35
2022-09-26T11:47:38.353Z,6.50
2022-09-26T11:50:20.376Z,3.30
2022-09-26T11:53:07.033Z,3.72
2022-09-26T11:56:11.422Z,6.20
2022-09-26T11:58:46.982Z,5.25
2022-09-26T12:01:38.093Z,6.93
2022-09-26T12:04:49.824Z,4.38
2022-09-26T12:07:34.955Z,4.32
2022-09-26T12:10:31.250Z,5.63
2022-09-26T12:13:12.286Z,4.30
2022-09-26T12:15:41.769Z,3.85
2022-09-26T12:18:21.557Z,3.25
2022-09-26T12:21:03.196Z,3.45
2022-09-26T12:23:48.914Z,5.25
2022-09-26T12:26:40.298Z,3.00
2022-09-26T12:29:45.539Z,4.68
2022-09-26T12:32:17.845Z,2.95
2022-09-26T12:34:44.173Z,3.25
2022-09-26T12:37:23.335Z,2.10
2022-09-26T12:40:14.202Z,3.33
2022-09-26T12:43:07.467Z,3.17
2022-09-26T12:46:15.070Z,2.67
2022-09-26T12:49:01.878Z,3.17
2022-09-26T12:51:37.289Z,2.70
2022-09-26T12:54:40.248Z,3.25
2022-09-26T12:57:21.109Z,3.35
2022-09-26T13:00:20.281Z,4.38
2022-09-26T13:03:09.723Z,3.45
2022-09-26T13:06:08.849Z,2.65
2022-09-26T13:08:41.241Z,4.88
2022-09-26T13:11:40.351Z,3.90
2022-09-26T13:14:36.987Z,3.40
2022-09-26T13:17:19.046Z,3.53
2022-09-26T13:20:04.018Z,3.75
2022-09-26T13:22:48.876Z,7.32
2022-09-26T13:25:29.787Z,3.20
2022-09-26T13:28:05.187Z,3.05
2022-09-26T13:30:53.675Z,5.45
2022-09-26T13:33:22.265Z,4.43
2022-09-26T13:35:52.942Z,4.40
2022-09-26T13:38:52.931Z,3.20
2022-09-26T13:41:29.396Z,2.85
2022-09-26T13:44:14.636Z,7.35
2022-09-26T13:47:08.667Z,5.88
2022-09-26T13:49:50.980Z,4.05
2022-09-26T13:52:48.068Z,4.32
2022-09-26T13:55:20.047Z,3.47
2022-09-26T14:00:30.253Z,3.15
2022-09-26T14:03:18.160Z,3.65
2022-09-26T14:05:44.707Z,3.75
2022-09-26T14:08:52.860Z,3.95
2022-09-26T14:11:19.140Z,4.13
2022-09-26T14:13:47.616Z,4.05
2022-09-26T14:16:36.686Z,3.22
2022-09-26T14:19:15.524Z,2.70
2022-09-26T14:22:03.123Z,3.47
2022-09-26T14:24:36.672Z,2.95
2022-09-26T14:27:10.169Z,3.58
2022-09-26T14:29:39.470Z,3.78
2022-09-26T14:32:23.175Z,3.83
2022-09-26T14:34:59.237Z,4.18
2022-09-26T14:37:43.792Z,3.50
2022-09-26T14:40:10.100Z,3.15
2022-09-26T14:42:39.158Z,6.45
2022-09-26T14:45:16.556Z,5.03
2022-09-26T14:47:48.639Z,7.00
2022-09-26T14:50:20.270Z,4.88
2022-09-26T14:52:52.049Z,3.80
2022-09-26T14:55:19.189Z,4.75
2022-09-26T14:57:46.520Z,7.15
2022-09-26T15:00:34.955Z,5.57
2022-09-26T15:03:07.248Z,5.97
2022-09-26T15:05:33.966Z,8.05
2022-09-26T15:08:01.088Z,5.50
2022-09-26T15:10:38.520Z,5.30
2022-09-26T15:13:12.625Z,5.72
2022-09-26T15:15:55.347Z,8.82
2022-09-26T15:18:27.816Z,7.30
2022-09-26T15:21:04.184Z,5.70
2022-09-26T15:23:33.903Z,6.43
2022-09-26T15:26:05.341Z,9.80
2022-09-26T15:28:34.580Z,6.10
2022-09-26T15:31:39.767Z,8.20
2022-09-26T15:34:23.529Z,6.60
2022-09-26T15:36:56.469Z,6.95
2022-09-26T15:39:31.773Z,9.82
2022-09-26T15:42:18.225Z,8.75
2022-09-26T15:44:53.954Z,7.18
2022-09-26T15:47:29.823Z,13.18
2022-09-26T15:50:02.211Z,9.15
2022-09-26T15:52:35.173Z,9.98
2022-09-26T15:55:08.119Z,10.65
2022-09-26T15:57:35.020Z,8.48
2022-09-26T16:00:02.540Z,9.05
2022-09-26T16:02:32.560Z,9.95
2022-09-26T16:04:59.988Z,8.13
2022-09-26T16:07:30.513Z,14.35
2022-09-26T16:09:57.995Z,14.20
2022-09-26T16:12:31.698Z,13.13
2022-09-26T16:15:05.335Z,8.07
2022-09-26T16:17:36.039Z,13.88
2022-09-26T16:20:25.978Z,8.52
2022-09-26T16:23:01.764Z,12.85
2022-09-26T16:25:33.272Z,11.80
2022-09-26T16:28:18.872Z,9.50
2022-09-26T16:31:00.165Z,13.32
2022-09-26T16:33:36.298Z,9.77
2022-09-26T16:36:14.602Z,12.13
2022-09-26T16:38:41.089Z,12.13
2022-09-26T16:41:36.286Z,11.30
2022-09-26T16:44:24.383Z,13.55
2022-09-26T16:46:58.975Z,13.43
2022-09-26T16:49:34.554Z,13.30
2022-09-26T16:52:27.432Z,10.98
2022-09-26T16:54:55.955Z,17.35
2022-09-26T16:57:26.968Z,13.07
2022-09-26T17:00:13.846Z,13.27
2022-09-26T17:02:40.457Z,12.95
2022-09-26T17:05:21.040Z,11.50
2022-09-26T17:07:49.214Z,12.25
2022-09-26T17:10:18.218Z,16.35
2022-09-26T17:12:48.893Z,12.32
2022-09-26T17:15:21.310Z,12.73
2022-09-26T17:17:48.635Z,11.40
2022-09-26T17:20:16.079Z,10.88
2022-09-26T17:22:42.686Z,11.65
2022-09-26T17:25:13.911Z,18.50
2022-09-26T17:27:42.253Z,16.65
2022-09-26T17:30:18.598Z,11.40
2022-09-26T17:32:49.967Z,15.25
2022-09-26T17:35:29.837Z,13.75
2022-09-26T17:37:56.981Z,12.27
2022-09-26T17:40:26.556Z,10.70
2022-09-26T17:42:55.575Z,9.95
2022-09-26T17:45:36.120Z,12.98
2022-09-26T17:48:06.056Z,17.77
2022-09-26T17:50:33.697Z,14.18
2022-09-26T17:53:02.090Z,12.88
2022-09-26T17:55:29.655Z,15.40
2022-09-26T17:57:57.721Z,9.88
2022-09-26T18:00:24.670Z,13.27
2022-09-26T18:02:57.688Z,8.88
2022-09-26T18:05:32.243Z,9.50
2022-09-26T18:08:27.936Z,7.95
2022-09-26T18:10:58.089Z,11.68
2022-09-26T18:13:39.121Z,9.55
2022-09-26T18:16:06.148Z,10.95
2022-09-26T18:18:36.369Z,9.68
2022-09-26T18:21:04.108Z,11.05
2022-09-26T18:23:42.320Z,11.82
2022-09-26T18:26:15.030Z,8.68
2022-09-26T18:28:41.956Z,8.38
2022-09-26T18:31:11.460Z,17.40
2022-09-26T18:33:38.334Z,15.32
2022-09-26T18:36:05.375Z,12.98
2022-09-26T18:38:31.939Z,13.27
2022-09-26T18:40:58.983Z,11.35
2022-09-26T18:43:32.037Z,10.77
2022-09-26T18:45:59.259Z,9.05
2022-09-26T18:48:32.959Z,10.60
2022-09-26T18:51:00.269Z,8.95
2022-09-26T18:53:30.293Z,8.68
2022-09-26T18:56:15.081Z,9.40
2022-09-26T18:58:41.439Z,10.95
2022-09-26T19:01:14.061Z,10.40
2022-09-26T19:03:42.870Z,15.77
2022-09-26T19:06:18.828Z,20.80
2022-09-26T19:08:49.414Z,18.30
2022-09-26T19:11:22.163Z,14.02
2022-09-26T19:13:54.699Z,12.60
2022-09-26T19:16:22.718Z,11.70
2022-09-26T19:18:49.405Z,9.77
2022-09-26T19:21:26.147Z,12.25
2022-09-26T19:23:53.237Z,8.50
2022-09-26T19:26:26.946Z,6.40
2022-09-26T19:28:57.313Z,8.57
2022-09-26T19:31:24.175Z,7.78
2022-09-26T19:33:50.755Z,7.50
2022-09-26T19:36:19.440Z,6.40
2022-09-26T19:38:49.339Z,3.22
2022-09-26T19:41:15.773Z,6.10
2022-09-26T19:43:42.387Z,3.55
2022-09-26T19:46:14.783Z,5.40
2022-09-26T19:48:44.133Z,5.10
2022-09-26T19:51:14.322Z,2.97
2022-09-26T19:53:41.153Z,6.40
2022-09-26T19:56:07.821Z,4.95
2022-09-26T19:58:34.449Z,8.52
2022-09-26T20:01:06.898Z,6.57
2022-09-26T20:03:39.963Z,7.30
2022-09-26T20:06:20.219Z,10.00
2022-09-26T20:08:54.539Z,6.70
2022-09-26T20:11:24.312Z,9.40
2022-09-26T20:14:09.598Z,7.03
2022-09-26T20:16:42.622Z,8.35
2022-09-26T20:19:29.311Z,7.68
2022-09-26T20:21:59.765Z,7.63
2022-09-26T20:24:27.665Z,7.93
2022-09-26T20:26:55.145Z,6.35
2022-09-26T20:29:22.954Z,7.10
2022-09-26T20:31:49.548Z,5.60
2022-09-26T20:34:17.229Z,4.28
2022-09-26T20:36:51.152Z,4.18
2022-09-26T20:39:26.298Z,4.68
2022-09-26T20:41:56.561Z,5.93
2022-09-26T20:44:28.411Z,4.25
2022-09-26T20:46:58.961Z,3.88
2022-09-26T20:49:33.083Z,4.18
2022-09-26T20:52:00.039Z,6.13
2022-09-26T20:54:32.054Z,5.28
2022-09-26T20:59:27.025Z,9.98
2022-09-26T21:01:54.569Z,4.45
2022-09-26T21:04:31.156Z,3.90
2022-09-26T21:06:57.960Z,7.93
2022-09-26T21:09:24.337Z,8.10
2022-09-26T21:11:53.308Z,9.40
2022-09-26T21:14:19.813Z,7.82
2022-09-26T21:16:54.682Z,8.10
2022-09-26T21:19:24.332Z,7.22
2022-09-26T21:21:53.787Z,12.13
2022-09-26T21:24:28.889Z,6.72
2022-09-26T21:26:55.481Z,7.25
2022-09-26T21:29:22.097Z,5.97
2022-09-26T21:31:51.375Z,7.78
2022-09-26T21:34:23.791Z,5.78
2022-09-26T21:36:53.534Z,6.47
2022-09-26T21:39:20.586Z,6.93
2022-09-26T21:41:50.484Z,5.70
2022-09-26T21:44:32.366Z,5.13
2022-09-26T21:46:59.015Z,8.00
2022-09-26T21:49:25.394Z,4.32
2022-09-26T21:51:57.823Z,8.80
2022-09-26T21:54:33.324Z,5.25
2022-09-26T21:57:07.970Z,7.03
2022-09-26T21:59:38.035Z,8.73
2022-09-26T22:02:07.279Z,5.78
2022-09-26T22:04:34.065Z,4.10
2022-09-26T22:07:00.679Z,5.05
2022-09-26T22:09:27.445Z,4.22
2022-09-26T22:11:53.936Z,3.85
2022-09-26T22:14:20.303Z,6.25
2022-09-26T22:16:47.052Z,5.80
2022-09-26T22:19:14.816Z,5.22
2022-09-26T22:21:41.380Z,6.47
2022-09-26T22:24:08.308Z,6.28
2022-09-26T22:26:34.897Z,6.80
2022-09-26T22:29:01.475Z,8.95
2022-09-26T22:31:28.291Z,6.22
2022-09-26T22:33:58.795Z,9.73
2022-09-26T22:36:26.413Z,4.20
2022-09-26T22:38:55.058Z,4.28
2022-09-26T22:41:21.589Z,3.67
2022-09-26T22:43:49.118Z,2.75
2022-09-26T22:46:15.775Z,6.05
2022-09-26T22:48:45.819Z,3.67
2022-09-26T22:51:17.428Z,5.70
2022-09-26T22:53:45.030Z,4.10
2022-09-26T22:56:14.854Z,3.42
2022-09-26T22:58:48.030Z,3.72
2022-09-26T23:01:17.852Z,2.92
2022-09-26T23:03:44.866Z,11.10
2022-09-26T23:06:11.949Z,5.38
2022-09-26T23:08:38.746Z,3.47
2022-09-26T23:11:07.034Z,2.28
2022-09-26T23:13:35.438Z,4.82
2022-09-26T23:16:17.316Z,3.38
2022-09-26T23:18:44.975Z,2.80
2022-09-26T23:21:20.159Z,2.53
2022-09-26T23:23:52.364Z,1.15
2022-09-26T23:28:51.905Z,2.10
2022-09-26T23:31:19.291Z,4.47
2022-09-26T23:33:46.053Z,1.83
2022-09-26T23:36:13.895Z,2.38
2022-09-26T23:38:42.918Z,4.97
2022-09-26T23:41:10.912Z,2.90
2022-09-26T23:43:38.589Z,3.83
2022-09-26T23:46:05.784Z,4.68
2022-09-26T23:48:32.489Z,3.17
2022-09-26T23:50:59.120Z,1.88
2022-09-26T23:53:28.521Z,4.07
2022-09-26T23:56:02.985Z,1.80
2022-09-26T23:58:29.764Z,2.08
